createdAt,value
2022-09-11T00:01:04.545Z,36.86
2022-09-11T00:03:06.192Z,37.08
2022-09-11T00:05:07.962Z,36.84
2022-09-11T00:07:09.569Z,36.86
2022-09-11T00:09:11.154Z,36.92
2022-09-11T00:11:15.071Z,37.11
2022-09-11T00:13:18.746Z,37.05
2022-09-11T00:15:20.329Z,37.16
2022-09-11T00:17:21.900Z,37.13
2022-09-11T00:19:23.485Z,37.07
2022-09-11T00:21:25.523Z,37.15
2022-09-11T00:23:27.134Z,37.26
2022-09-11T00:25:28.715Z,36.84
2022-09-11T00:27:30.289Z,37.00
2022-09-11T00:29:31.876Z,37.17
2022-09-11T00:31:33.492Z,36.95
2022-09-11T00:33:35.365Z,37.14
2022-09-11T00:35:37.007Z,36.95
2022-09-11T00:37:38.590Z,37.22
2022-09-11T00:39:40.200Z,37.14
2022-09-11T00:41:43.214Z,37.04
2022-09-11T00:44:08.008Z,36.99
2022-09-11T00:46:09.622Z,36.83
2022-09-11T00:48:11.275Z,37.08
2022-09-11T00:50:14.323Z,37.11
2022-09-11T00:52:20.643Z,37.09
2022-09-11T00:54:26.710Z,36.95
2022-09-11T00:56:29.335Z,37.08
2022-09-11T00:58:33.769Z,36.86
2022-09-11T01:00:35.182Z,37.18
2022-09-11T01:02:36.916Z,36.88
2022-09-11T01:04:38.501Z,37.19
2022-09-11T01:06:40.108Z,36.93
2022-09-11T01:08:41.698Z,37.15
2022-09-11T01:10:46.184Z,37.22
2022-09-11T01:12:58.566Z,37.06
2022-09-11T01:15:00.794Z,37.31
2022-09-11T01:17:05.022Z,37.11
2022-09-11T01:19:28.648Z,36.92
2022-09-11T01:21:33.910Z,37.02
2022-09-11T01:24:00.322Z,37.30
2022-09-11T01:26:35.887Z,37.24
2022-09-11T01:28:40.179Z,37.03
2022-09-11T01:30:46.147Z,37.21
2022-09-11T01:33:25.057Z,37.12
2022-09-11T01:35:40.741Z,36.85
2022-09-11T01:38:04.580Z,36.97
2022-09-11T01:40:12.202Z,37.11
2022-09-11T01:42:14.130Z,37.03
2022-09-11T01:44:20.066Z,36.86
2022-09-11T01:46:23.247Z,37.12
2022-09-11T01:48:43.060Z,37.14
2022-09-11T01:50:46.151Z,37.27
2022-09-11T01:52:53.135Z,37.15
2022-09-11T01:55:02.313Z,37.12
2022-09-11T01:57:06.934Z,37.34
2022-09-11T01:59:10.450Z,36.93
2022-09-11T02:01:18.384Z,37.04
2022-09-11T02:03:27.803Z,37.20
2022-09-11T02:05:32.040Z,37.05
2022-09-11T02:07:38.230Z,37.05
2022-09-11T02:10:09.943Z,37.27
2022-09-11T02:12:13.085Z,37.14
2022-09-11T02:14:44.048Z,37.03
2022-09-11T02:16:52.738Z,36.93
2022-09-11T02:18:59.698Z,37.08
2022-09-11T02:21:01.289Z,36.87
2022-09-11T02:23:02.884Z,36.81
2022-09-11T02:25:04.792Z,37.25
2022-09-11T02:27:08.309Z,36.91
2022-09-11T02:29:09.895Z,36.90
2022-09-11T02:31:11.529Z,37.26
2022-09-11T02:33:30.547Z,37.26
2022-09-11T02:35:38.681Z,37.38
2022-09-11T02:38:01.399Z,37.04
2022-09-11T02:40:15.353Z,36.95
2022-09-11T02:42:43.512Z,37.19
2022-09-11T02:45:06.921Z,37.28
2022-09-11T02:47:26.351Z,36.84
2022-09-11T02:49:43.848Z,36.96
2022-09-11T02:51:55.143Z,37.15
2022-09-11T02:54:24.168Z,37.16
2022-09-11T02:56:44.340Z,36.89
2022-09-11T02:58:48.709Z,36.83
2022-09-11T03:00:50.122Z,37.00
2022-09-11T03:02:51.745Z,36.81
2022-09-11T03:04:53.473Z,37.06
2022-09-11T03:06:55.456Z,37.01
2022-09-11T03:08:57.029Z,36.96
2022-09-11T03:10:58.619Z,37.18
2022-09-11T03:13:00.248Z,37.06
2022-09-11T03:15:01.818Z,37.21
2022-09-11T03:17:03.672Z,37.06
2022-09-11T03:19:05.563Z,36.82
2022-09-11T03:21:07.154Z,37.00
2022-09-11T03:23:08.730Z,37.10
2022-09-11T03:25:10.480Z,37.12
2022-09-11T03:27:12.753Z,36.99
2022-09-11T03:29:14.333Z,37.07
2022-09-11T03:31:16.425Z,37.18
2022-09-11T03:33:18.037Z,36.89
2022-09-11T03:35:19.632Z,36.89
2022-09-11T03:37:21.216Z,36.78
2022-09-11T03:39:22.791Z,37.15
2022-09-11T03:41:24.368Z,37.15
2022-09-11T03:43:25.947Z,36.89
2022-09-11T03:45:27.600Z,37.12
2022-09-11T03:47:29.216Z,37.09
2022-09-11T03:49:30.811Z,36.96
2022-09-11T03:51:32.914Z,37.11
2022-09-11T03:53:34.525Z,36.89
2022-09-11T03:55:36.095Z,36.82
2022-09-11T03:57:37.757Z,37.20
2022-09-11T03:59:39.330Z,37.01
2022-09-11T04:01:40.982Z,36.95
2022-09-11T04:03:42.806Z,37.14
2022-09-11T04:05:55.244Z,36.89
2022-09-11T04:07:56.823Z,36.83
2022-09-11T04:09:58.504Z,37.04
2022-09-11T04:12:00.105Z,37.02
2022-09-11T04:14:02.422Z,36.81
2022-09-11T04:16:08.482Z,37.13
2022-09-11T04:18:10.089Z,37.13
2022-09-11T04:20:11.675Z,37.13
2022-09-11T04:22:13.261Z,37.01
2022-09-11T04:24:14.840Z,37.14
2022-09-11T04:26:18.245Z,37.12
2022-09-11T04:28:19.840Z,36.95
2022-09-11T04:30:21.416Z,36.82
2022-09-11T04:32:22.996Z,37.21
2022-09-11T04:34:24.571Z,37.08
2022-09-11T04:36:26.152Z,37.23
2022-09-11T04:38:27.735Z,37.05
2022-09-11T04:40:29.312Z,36.76
2022-09-11T04:42:30.960Z,36.93
2022-09-11T04:44:32.531Z,37.05
2022-09-11T04:46:34.108Z,37.01
2022-09-11T04:48:35.691Z,37.04
2022-09-11T04:50:37.280Z,37.00
2022-09-11T04:52:38.864Z,37.14
2022-09-11T04:54:40.446Z,36.85
2022-09-11T04:56:42.198Z,36.88
2022-09-11T04:58:43.848Z,36.72
2022-09-11T05:00:45.442Z,36.75
2022-09-11T05:02:47.053Z,37.07
2022-09-11T05:04:48.633Z,36.86
2022-09-11T05:06:50.217Z,37.15
2022-09-11T05:08:52.027Z,37.14
2022-09-11T05:10:53.639Z,36.79
2022-09-11T05:12:55.232Z,37.02
2022-09-11T05:14:56.826Z,37.12
2022-09-11T05:16:59.010Z,36.83
2022-09-11T05:19:00.891Z,37.22
2022-09-11T05:21:03.333Z,36.90
2022-09-11T05:23:04.904Z,37.09
2022-09-11T05:25:06.684Z,36.83
2022-09-11T05:27:08.280Z,36.96
2022-09-11T05:29:14.192Z,36.84
2022-09-11T05:31:17.086Z,36.95
2022-09-11T05:33:18.885Z,36.97
2022-09-11T05:35:21.218Z,36.87
2022-09-11T05:37:22.827Z,36.93
2022-09-11T05:39:24.527Z,36.84
2022-09-11T05:41:26.139Z,37.03
2022-09-11T05:43:27.746Z,36.63
2022-09-11T05:45:29.367Z,37.17
2022-09-11T05:47:30.959Z,36.77
2022-09-11T05:49:32.546Z,37.18
2022-09-11T05:51:34.125Z,36.76
2022-09-11T05:53:35.762Z,37.03
2022-09-11T05:55:37.336Z,36.82
2022-09-11T05:57:38.917Z,37.08
2022-09-11T05:59:40.502Z,37.04
2022-09-11T06:01:42.100Z,37.10
2022-09-11T06:03:43.971Z,37.04
2022-09-11T06:05:45.607Z,37.08
2022-09-11T06:07:47.176Z,37.06
2022-09-11T06:09:48.776Z,37.03
2022-09-11T06:11:50.366Z,37.15
2022-09-11T06:13:51.962Z,36.82
2022-09-11T06:15:53.557Z,37.03
2022-09-11T06:17:55.163Z,37.03
2022-09-11T06:19:56.813Z,37.00
2022-09-11T06:21:58.401Z,36.97
2022-09-11T06:23:59.985Z,36.92
2022-09-11T06:26:12.372Z,37.07
2022-09-11T06:28:14.132Z,37.04
2022-09-11T06:30:15.794Z,36.96
2022-09-11T06:32:17.380Z,36.72
2022-09-11T06:34:18.956Z,37.13
2022-09-11T06:36:21.982Z,37.06
2022-09-11T06:38:26.754Z,36.86
2022-09-11T06:40:28.344Z,37.12
2022-09-11T06:42:29.935Z,36.68
2022-09-11T06:44:31.513Z,37.04
2022-09-11T06:46:33.103Z,36.82
2022-09-11T06:48:34.733Z,37.15
2022-09-11T06:50:39.184Z,36.92
2022-09-11T06:52:40.563Z,36.82
2022-09-11T06:54:42.145Z,36.67
2022-09-11T06:56:43.732Z,36.82
2022-09-11T06:58:45.581Z,37.01
2022-09-11T07:00:47.193Z,37.04
2022-09-11T07:02:48.802Z,36.81
2022-09-11T07:04:50.393Z,36.83
2022-09-11T07:06:51.985Z,36.75
2022-09-11T07:08:57.568Z,37.04
2022-09-11T07:11:09.965Z,36.97
2022-09-11T07:13:11.607Z,36.81
2022-09-11T07:15:13.239Z,37.02
2022-09-11T07:17:14.826Z,36.98
2022-09-11T07:19:16.443Z,36.85
2022-09-11T07:21:19.954Z,36.76
2022-09-11T07:23:21.536Z,36.74
2022-09-11T07:25:23.124Z,36.73
2022-09-11T07:27:24.711Z,37.01
2022-09-11T07:29:26.300Z,37.01
2022-09-11T07:31:31.674Z,36.91
2022-09-11T07:33:33.429Z,36.72
2022-09-11T07:35:37.059Z,37.18
2022-09-11T07:37:38.637Z,36.99
2022-09-11T07:39:40.402Z,37.00
2022-09-11T07:41:42.081Z,37.14
2022-09-11T07:43:43.865Z,36.81
2022-09-11T07:45:45.544Z,36.76
2022-09-11T07:47:47.139Z,36.78
2022-09-11T07:49:48.753Z,36.76
2022-09-11T07:51:50.374Z,36.70
2022-09-11T07:53:52.190Z,36.80
2022-09-11T07:55:53.781Z,36.58
2022-09-11T07:57:55.372Z,37.10
2022-09-11T07:59:56.963Z,36.84
2022-09-11T08:01:58.582Z,36.77
2022-09-11T08:04:02.189Z,36.80
2022-09-11T08:06:06.171Z,36.90
2022-09-11T08:08:07.770Z,36.99
2022-09-11T08:10:26.802Z,36.69
2022-09-11T08:12:29.406Z,37.05
2022-09-11T08:14:30.986Z,36.74
2022-09-11T08:16:32.686Z,36.75
2022-09-11T08:18:34.427Z,36.89
2022-09-11T08:20:36.028Z,36.95
2022-09-11T08:22:37.607Z,36.75
2022-09-11T08:24:39.211Z,36.88
2022-09-11T08:26:40.797Z,36.78
2022-09-11T08:28:42.898Z,36.80
2022-09-11T08:30:44.504Z,36.96
2022-09-11T08:32:46.085Z,37.04
2022-09-11T08:34:47.687Z,36.96
2022-09-11T08:36:49.314Z,36.99
2022-09-11T08:38:50.892Z,36.57
2022-09-11T08:40:52.492Z,36.63
2022-09-11T08:42:54.071Z,36.95
2022-09-11T08:44:56.733Z,36.81
2022-09-11T08:47:05.380Z,36.63
2022-09-11T08:49:26.448Z,36.94
2022-09-11T08:51:28.055Z,36.75
2022-09-11T08:53:30.387Z,36.73
2022-09-11T08:55:37.280Z,36.83
2022-09-11T08:57:38.805Z,36.63
2022-09-11T08:59:52.511Z,36.93
2022-09-11T09:02:07.710Z,36.82
2022-09-11T09:04:37.107Z,36.58
2022-09-11T09:07:00.193Z,36.68
2022-09-11T09:09:29.752Z,36.95
2022-09-11T09:11:45.740Z,36.85
2022-09-11T09:14:05.921Z,36.88
2022-09-11T09:16:38.355Z,36.82
2022-09-11T09:19:01.966Z,36.91
2022-09-11T09:21:11.645Z,36.93
2022-09-11T09:23:24.840Z,36.89
2022-09-11T09:25:26.435Z,36.58
2022-09-11T09:27:30.823Z,36.71
2022-09-11T09:29:33.914Z,36.74
2022-09-11T09:31:35.508Z,36.78
2022-09-11T09:33:47.661Z,36.89
2022-09-11T09:35:49.278Z,36.93
2022-09-11T09:37:50.928Z,36.69
2022-09-11T09:39:52.553Z,36.74
2022-09-11T09:41:57.311Z,36.54
2022-09-11T09:44:24.256Z,36.66
2022-09-11T09:46:41.811Z,36.61
2022-09-11T09:48:43.527Z,36.99
2022-09-11T09:50:45.233Z,36.80
2022-09-11T09:52:47.570Z,36.83
2022-09-11T09:54:56.014Z,36.83
2022-09-11T09:57:04.785Z,37.01
2022-09-11T09:59:08.890Z,36.85
2022-09-11T10:01:41.301Z,36.72
2022-09-11T10:03:43.013Z,36.96
2022-09-11T10:05:44.663Z,36.70
2022-09-11T10:07:51.141Z,37.05
2022-09-11T10:09:53.619Z,36.94
2022-09-11T10:12:06.365Z,36.96
2022-09-11T10:14:11.876Z,37.00
2022-09-11T10:16:20.162Z,36.69
2022-09-11T10:18:40.400Z,36.74
2022-09-11T10:20:41.992Z,36.65
2022-09-11T10:22:43.588Z,36.93
2022-09-11T10:24:45.262Z,36.75
2022-09-11T10:26:48.240Z,36.84
2022-09-11T10:28:49.846Z,36.90
2022-09-11T10:30:54.480Z,36.61
2022-09-11T10:33:00.061Z,36.96
2022-09-11T10:35:09.217Z,36.81
2022-09-11T10:37:13.453Z,36.81
2022-09-11T10:39:16.471Z,36.83
2022-09-11T10:41:20.519Z,36.80
2022-09-11T10:43:26.706Z,36.88
2022-09-11T10:45:28.309Z,36.69
2022-09-11T10:47:30.118Z,36.60
2022-09-11T10:49:31.741Z,36.82
2022-09-11T10:51:35.215Z,36.79
2022-09-11T10:53:42.979Z,36.99
2022-09-11T10:55:58.233Z,36.97
2022-09-11T10:58:13.395Z,36.92
2022-09-11T11:00:20.817Z,36.60
2022-09-11T11:02:35.859Z,36.70
2022-09-11T11:04:37.466Z,36.66
2022-09-11T11:07:07.003Z,36.73
2022-09-11T11:09:16.743Z,36.91
2022-09-11T11:11:30.351Z,36.80
2022-09-11T11:13:39.210Z,36.65
2022-09-11T11:15:58.700Z,36.65
2022-09-11T11:18:20.441Z,36.64
2022-09-11T11:20:58.748Z,36.85
2022-09-11T11:23:18.274Z,36.96
2022-09-11T11:25:33.016Z,36.74
2022-09-11T11:28:04.031Z,36.54
2022-09-11T11:30:12.089Z,36.86
2022-09-11T11:32:21.074Z,36.68
2022-09-11T11:34:38.779Z,36.89
2022-09-11T11:37:01.029Z,36.58
2022-09-11T11:39:08.654Z,36.79
2022-09-11T11:41:13.079Z,36.58
2022-09-11T11:43:15.084Z,36.52
2022-09-11T11:45:40.145Z,36.75
2022-09-11T11:47:41.753Z,36.77
2022-09-11T11:50:00.968Z,37.06
2022-09-11T11:52:30.387Z,36.69
2022-09-11T11:54:45.444Z,36.66
2022-09-11T11:56:51.409Z,36.95
2022-09-11T11:59:09.880Z,36.66
2022-09-11T12:01:21.429Z,36.61
2022-09-11T12:03:36.765Z,36.92
2022-09-11T12:05:38.421Z,36.65
2022-09-11T12:07:40.062Z,36.88
2022-09-11T12:09:46.808Z,36.94
2022-09-11T12:11:51.326Z,36.70
2022-09-11T12:13:52.984Z,36.56
2022-09-11T12:16:25.834Z,36.89
2022-09-11T12:18:27.537Z,36.94
2022-09-11T12:20:30.211Z,36.88
2022-09-11T12:22:36.140Z,36.81
2022-09-11T12:24:49.605Z,36.83
2022-09-11T12:27:28.568Z,36.88
2022-09-11T12:29:30.310Z,36.90
2022-09-11T12:31:51.009Z,37.01
2022-09-11T12:33:53.012Z,36.53
2022-09-11T12:35:54.623Z,36.54
2022-09-11T12:38:01.200Z,36.75
2022-09-11T12:40:12.954Z,36.72
2022-09-11T12:42:23.784Z,36.44
2022-09-11T12:44:29.489Z,36.84
2022-09-11T12:46:31.158Z,36.66
2022-09-11T12:48:36.970Z,36.59
2022-09-11T12:50:38.678Z,36.61
2022-09-11T12:52:51.783Z,36.65
2022-09-11T12:54:53.393Z,36.43
2022-09-11T12:57:05.930Z,36.93
2022-09-11T12:59:08.125Z,36.68
2022-09-11T13:01:14.637Z,36.57
2022-09-11T13:03:20.989Z,36.93
2022-09-11T13:05:30.087Z,36.78
2022-09-11T13:07:40.916Z,36.59
2022-09-11T13:09:46.690Z,36.72
2022-09-11T13:11:50.050Z,36.84
2022-09-11T13:13:51.669Z,36.66
2022-09-11T13:15:53.302Z,36.64
2022-09-11T13:17:54.941Z,36.50
2022-09-11T13:20:05.631Z,36.63
2022-09-11T13:22:24.426Z,36.82
2022-09-11T13:24:30.094Z,36.55
2022-09-11T13:26:31.732Z,36.63
2022-09-11T13:28:48.020Z,36.83
2022-09-11T13:31:12.290Z,36.78
2022-09-11T13:33:22.891Z,36.35
2022-09-11T13:35:26.276Z,36.58
2022-09-11T13:37:40.160Z,36.52
2022-09-11T13:39:44.987Z,36.61
2022-09-11T13:41:49.320Z,36.83
2022-09-11T13:44:01.561Z,36.32
2022-09-11T13:46:29.995Z,36.74
2022-09-11T13:48:31.699Z,36.90
2022-09-11T13:50:33.481Z,36.58
2022-09-11T13:52:35.462Z,36.55
2022-09-11T13:54:38.123Z,36.53
2022-09-11T13:56:45.024Z,36.72
2022-09-11T13:58:49.313Z,36.82
2022-09-11T14:00:54.659Z,37.02
2022-09-11T14:02:56.453Z,36.97
2022-09-11T14:05:03.863Z,36.92
2022-09-11T14:07:15.231Z,36.88
2022-09-11T14:09:20.178Z,36.86
2022-09-11T14:11:26.818Z,38.38
2022-09-11T14:13:41.208Z,38.26
2022-09-11T14:16:07.343Z,38.14
2022-09-11T14:18:36.421Z,40.17
2022-09-11T14:20:41.620Z,39.22
2022-09-11T14:22:43.366Z,40.28
2022-09-11T14:25:21.034Z,37.69
2022-09-11T14:27:36.188Z,37.43
2022-09-11T14:29:40.675Z,37.95
2022-09-11T14:31:43.069Z,38.14
2022-09-11T14:33:44.942Z,37.11
2022-09-11T14:35:47.128Z,37.61
2022-09-11T14:37:48.813Z,36.41
2022-09-11T14:39:55.242Z,36.22
2022-09-11T14:41:57.380Z,37.09
2022-09-11T14:44:00.917Z,37.21
2022-09-11T14:46:03.527Z,37.60
2022-09-11T14:48:14.088Z,37.18
2022-09-11T14:50:16.087Z,36.96
2022-09-11T14:52:19.632Z,36.77
2022-09-11T14:54:21.473Z,36.45
2022-09-11T14:56:26.190Z,35.60
2022-09-11T14:58:28.173Z,35.85
2022-09-11T15:00:30.016Z,35.84
2022-09-11T15:02:33.536Z,35.78
2022-09-11T15:04:36.184Z,36.34
2022-09-11T15:06:37.894Z,36.92
2022-09-11T15:08:39.607Z,35.46
2022-09-11T15:10:41.317Z,36.74
2022-09-11T15:12:43.405Z,37.09
2022-09-11T15:14:56.643Z,36.90
2022-09-11T15:17:00.577Z,36.10
2022-09-11T15:19:02.387Z,36.64
2022-09-11T15:21:04.475Z,36.54
2022-09-11T15:23:06.155Z,36.01
2022-09-11T15:25:08.363Z,36.49
2022-09-11T15:27:10.098Z,36.05
2022-09-11T15:29:11.913Z,35.13
2022-09-11T15:31:13.959Z,36.95
2022-09-11T15:33:15.587Z,37.44
2022-09-11T15:35:17.418Z,36.48
2022-09-11T15:37:19.532Z,36.79
2022-09-11T15:39:21.631Z,36.08
2022-09-11T15:41:24.887Z,36.63
2022-09-11T15:43:34.215Z,35.64
2022-09-11T15:45:38.867Z,34.86
2022-09-11T15:47:40.694Z,35.29
2022-09-11T15:49:43.013Z,35.03
2022-09-11T15:51:45.185Z,35.11
2022-09-11T15:53:46.967Z,34.56
2022-09-11T15:55:48.823Z,34.01
2022-09-11T15:57:50.583Z,33.34
2022-09-11T15:59:52.202Z,33.53
2022-09-11T16:01:54.002Z,32.87
2022-09-11T16:03:57.976Z,32.95
2022-09-11T16:05:59.788Z,32.78
2022-09-11T16:08:01.864Z,32.75
2022-09-11T16:10:03.820Z,32.41
2022-09-11T16:12:05.796Z,32.92
2022-09-11T16:14:08.028Z,32.48
2022-09-11T16:16:09.967Z,32.57
2022-09-11T16:18:11.635Z,32.38
2022-09-11T16:20:13.439Z,32.19
2022-09-11T16:22:15.241Z,32.33
2022-09-11T16:24:17.335Z,32.59
2022-09-11T16:26:19.787Z,33.38
2022-09-11T16:28:22.144Z,33.05
2022-09-11T16:30:42.914Z,32.64
2022-09-11T16:32:46.438Z,32.57
2022-09-11T16:34:48.319Z,33.18
2022-09-11T16:36:50.210Z,33.32
2022-09-11T16:38:52.185Z,33.48
2022-09-11T16:41:04.545Z,32.91
2022-09-11T16:43:06.425Z,33.00
2022-09-11T16:45:08.480Z,33.54
2022-09-11T16:47:10.133Z,32.69
2022-09-11T16:49:18.695Z,32.66
2022-09-11T16:51:20.832Z,32.60
2022-09-11T16:53:22.890Z,32.84
2022-09-11T16:55:25.043Z,32.50
2022-09-11T16:57:26.974Z,32.43
2022-09-11T16:59:28.898Z,32.77
2022-09-11T17:01:30.793Z,32.36
2022-09-11T17:03:32.647Z,32.69
2022-09-11T17:05:34.290Z,32.44
2022-09-11T17:07:36.188Z,32.18
2022-09-11T17:09:37.965Z,32.27
2022-09-11T17:11:39.860Z,32.96
2022-09-11T17:13:42.320Z,33.01
2022-09-11T17:15:43.982Z,33.37
2022-09-11T17:17:46.007Z,32.58
2022-09-11T17:19:48.148Z,32.39
2022-09-11T17:21:50.168Z,32.13
2022-09-11T17:23:53.156Z,32.21
2022-09-11T17:25:55.150Z,31.93
2022-09-11T17:27:56.873Z,32.41
2022-09-11T17:29:59.118Z,32.37
2022-09-11T17:32:24.142Z,31.93
2022-09-11T17:34:22.745Z,32.30
2022-09-11T17:36:26.842Z,32.27
2022-09-11T17:38:28.873Z,32.69
2022-09-11T17:40:31.922Z,32.99
2022-09-11T17:42:33.836Z,34.71
2022-09-11T17:44:35.761Z,34.42
2022-09-11T17:46:37.808Z,32.88
2022-09-11T17:48:39.801Z,32.85
2022-09-11T17:50:41.589Z,33.47
2022-09-11T17:52:43.633Z,33.18
2022-09-11T17:54:45.640Z,33.41
2022-09-11T17:56:47.364Z,32.59
2022-09-11T17:58:56.114Z,33.89
2022-09-11T18:00:58.393Z,34.28
2022-09-11T18:03:00.686Z,34.24
2022-09-11T18:05:02.887Z,33.88
2022-09-11T18:07:05.197Z,34.22
2022-09-11T18:09:09.044Z,34.56
2022-09-11T18:11:10.891Z,35.02
2022-09-11T18:13:13.193Z,35.33
2022-09-11T18:15:14.909Z,34.81
2022-09-11T18:17:16.986Z,35.14
2022-09-11T18:19:19.060Z,35.55
2022-09-11T18:21:20.907Z,35.64
2022-09-11T18:23:23.887Z,35.65
2022-09-11T18:25:25.636Z,35.75
2022-09-11T18:27:27.339Z,35.60
2022-09-11T18:29:30.151Z,35.78
2022-09-11T18:31:33.491Z,36.27
2022-09-11T18:33:35.609Z,36.44
2022-09-11T18:35:38.104Z,37.26
2022-09-11T18:37:40.049Z,37.10
2022-09-11T18:39:42.133Z,36.84
2022-09-11T18:41:44.246Z,36.64
2022-09-11T18:43:46.115Z,36.75
2022-09-11T18:45:48.084Z,36.61
2022-09-11T18:47:49.926Z,36.82
2022-09-11T18:49:51.771Z,37.18
2022-09-11T18:51:53.512Z,37.16
2022-09-11T18:53:55.627Z,36.93
2022-09-11T18:56:01.264Z,37.02
2022-09-11T18:58:03.091Z,37.51
2022-09-11T19:00:05.382Z,37.26
2022-09-11T19:02:07.360Z,37.63
2022-09-11T19:04:10.644Z,37.86
2022-09-11T19:06:13.862Z,37.44
2022-09-11T19:08:15.656Z,37.54
2022-09-11T19:10:17.825Z,37.51
2022-09-11T19:12:19.755Z,37.23
2022-09-11T19:14:21.815Z,37.70
2022-09-11T19:16:23.616Z,37.58
2022-09-11T19:18:26.039Z,37.78
2022-09-11T19:20:27.862Z,37.63
2022-09-11T19:22:29.612Z,37.81
2022-09-11T19:24:31.390Z,37.92
2022-09-11T19:26:36.937Z,37.87
2022-09-11T19:28:39.327Z,37.48
2022-09-11T19:30:43.158Z,37.80
2022-09-11T19:32:45.227Z,37.58
2022-09-11T19:34:47.457Z,38.13
2022-09-11T19:36:49.473Z,37.92
2022-09-11T19:38:51.553Z,37.89
2022-09-11T19:40:53.413Z,37.76
2022-09-11T19:42:55.952Z,37.90
2022-09-11T19:44:57.643Z,37.82
2022-09-11T19:46:59.603Z,37.71
2022-09-11T19:49:02.637Z,37.73
2022-09-11T19:51:15.291Z,38.21
2022-09-11T19:53:17.047Z,38.23
2022-09-11T19:55:18.977Z,38.15
2022-09-11T19:57:20.688Z,38.22
2022-09-11T19:59:22.438Z,38.03
2022-09-11T20:01:25.178Z,37.90
2022-09-11T20:03:26.991Z,38.26
2022-09-11T20:05:28.671Z,38.13
2022-09-11T20:07:30.381Z,38.40
2022-09-11T20:09:32.664Z,38.06
2022-09-11T20:11:34.613Z,38.52
2022-09-11T20:13:36.405Z,38.46
2022-09-11T20:15:38.695Z,38.85
2022-09-11T20:17:40.394Z,38.34
2022-09-11T20:19:42.047Z,38.61
2022-09-11T20:21:43.792Z,38.85
2022-09-11T20:23:45.549Z,38.90
2022-09-11T20:25:47.362Z,38.68
2022-09-11T20:27:49.081Z,38.74
2022-09-11T20:29:50.873Z,38.70
2022-09-11T20:31:52.666Z,38.90
2022-09-11T20:33:54.467Z,38.86
2022-09-11T20:35:56.254Z,38.65
2022-09-11T20:37:57.971Z,38.99
2022-09-11T20:40:00.621Z,38.79
2022-09-11T20:42:02.585Z,39.20
2022-09-11T20:44:04.502Z,39.27
2022-09-11T20:46:06.551Z,38.95
2022-09-11T20:48:08.257Z,39.22
2022-09-11T20:50:10.185Z,39.83
2022-09-11T20:52:12.550Z,39.72
2022-09-11T20:54:14.343Z,39.05
2022-09-11T20:56:18.033Z,39.70
2022-09-11T20:58:19.848Z,40.85
2022-09-11T21:00:21.690Z,39.85
2022-09-11T21:02:23.498Z,39.96
2022-09-11T21:04:25.298Z,39.84
2022-09-11T21:06:28.542Z,39.73
2022-09-11T21:08:30.291Z,40.14
2022-09-11T21:10:35.206Z,39.90
2022-09-11T21:12:37.016Z,39.76
2022-09-11T21:14:38.721Z,39.64
2022-09-11T21:16:40.522Z,39.94
2022-09-11T21:18:47.119Z,39.99
2022-09-11T21:20:55.685Z,39.89
2022-09-11T21:22:57.365Z,40.15
2022-09-11T21:24:59.042Z,39.88
2022-09-11T21:27:00.728Z,40.18
2022-09-11T21:29:04.248Z,39.81
2022-09-11T21:31:05.957Z,39.90
2022-09-11T21:33:07.684Z,40.35
2022-09-11T21:35:09.390Z,40.86
2022-09-11T21:37:11.106Z,40.46
2022-09-11T21:39:12.958Z,40.64
2022-09-11T21:41:14.794Z,40.12
2022-09-11T21:43:16.641Z,40.35
2022-09-11T21:45:18.358Z,40.64
2022-09-11T21:47:20.117Z,40.27
2022-09-11T21:49:21.797Z,40.13
2022-09-11T21:51:23.477Z,39.99
2022-09-11T21:53:25.169Z,40.25
2022-09-11T21:55:26.960Z,40.61
2022-09-11T21:57:28.700Z,40.40
2022-09-11T21:59:30.442Z,40.85
2022-09-11T22:01:32.263Z,40.46
2022-09-11T22:03:34.203Z,40.67
2022-09-11T22:05:39.560Z,40.29
2022-09-11T22:07:41.236Z,40.61
2022-09-11T22:09:43.522Z,40.48
2022-09-11T22:11:45.250Z,40.73
2022-09-11T22:13:46.918Z,40.64
2022-09-11T22:15:49.557Z,41.20
2022-09-11T22:17:51.313Z,40.50
2022-09-11T22:19:52.946Z,40.60
2022-09-11T22:21:54.643Z,40.63
2022-09-11T22:23:56.303Z,41.07
2022-09-11T22:26:06.827Z,40.80
2022-09-11T22:28:08.565Z,40.74
2022-09-11T22:30:10.825Z,40.71
2022-09-11T22:32:12.545Z,40.64
2022-09-11T22:34:14.333Z,40.58
2022-09-11T22:36:17.778Z,40.83
2022-09-11T22:38:19.471Z,40.99
2022-09-11T22:40:21.174Z,40.93
2022-09-11T22:42:22.902Z,41.32
2022-09-11T22:44:24.651Z,41.38
2022-09-11T22:46:26.380Z,40.79
2022-09-11T22:48:28.080Z,41.45
2022-09-11T22:50:29.780Z,41.50
2022-09-11T22:52:31.443Z,42.25
2022-09-11T22:54:33.191Z,41.46
2022-09-11T22:56:34.885Z,41.58
2022-09-11T22:58:36.673Z,41.25
2022-09-11T23:00:38.696Z,40.79
2022-09-11T23:02:40.434Z,41.34
2022-09-11T23:04:42.109Z,40.98
2022-09-11T23:06:43.748Z,41.18
2022-09-11T23:08:45.732Z,41.46
2022-09-11T23:10:47.581Z,41.39
2022-09-11T23:12:50.775Z,41.14
2022-09-11T23:14:52.544Z,41.53
2022-09-11T23:16:54.277Z,41.18
2022-09-11T23:19:00.824Z,40.75
2022-09-11T23:21:02.638Z,41.20
2022-09-11T23:23:04.415Z,41.18
2022-09-11T23:25:06.597Z,40.84
2022-09-11T23:27:08.323Z,41.42
2022-09-11T23:29:10.412Z,41.17
2022-09-11T23:31:23.025Z,41.03
2022-09-11T23:33:24.732Z,41.01
2022-09-11T23:35:26.460Z,41.08
2022-09-11T23:37:28.168Z,41.31
2022-09-11T23:39:29.858Z,41.75
2022-09-11T23:41:31.579Z,41.58
2022-09-11T23:43:33.323Z,41.23
2022-09-11T23:45:35.081Z,41.01
2022-09-11T23:47:36.784Z,41.06
2022-09-11T23:49:38.591Z,41.05
2022-09-11T23:51:40.236Z,41.26
2022-09-11T23:53:42.225Z,41.01
2022-09-11T23:55:47.502Z,41.50
2022-09-11T23:57:49.281Z,41.26
2022-09-11T23:59:50.929Z,41.59
